Time;durP1;ratioP1;P1;durP2;ratioP2;P2;SDS_P1;SDS_P2;PMS_P1;PMS_P2;Temp;Humidity;BMP_temperature;BMP_pressure;BME280_temperature;BME280_humidity;BME280_pressure;Samples;Min_cycle;Max_cycle;Signal;HPM_P1;HPM_P2
2022/11/19 00:01:05;;;;;;;5.03;4.53;;;;;;;;;;4964400;28;20202;-43
2022/11/19 00:03:32;;;;;;;7.20;5.25;;;;;;;;;;4960940;28;20183;-43
2022/11/19 00:06:02;;;;;;;6.97;4.93;;;;;;;;;;4964350;28;20170;-43
2022/11/19 00:08:28;;;;;;;7.40;5.13;;;;;;;;;;4965797;28;20190;-44
2022/11/19 00:10:54;;;;;;;5.50;4.90;;;;;;;;;;4962304;28;20551;-43
2022/11/19 00:13:20;;;;;;;7.47;5.50;;;;;;;;;;4961444;28;20479;-43
2022/11/19 00:15:46;;;;;;;7.47;5.80;;;;;;;;;;4966234;28;20414;-43
2022/11/19 00:18:12;;;;;;;10.98;6.18;;;;;;;;;;4958387;28;20171;-43
2022/11/19 00:20:37;;;;;;;9.70;6.40;;;;;;;;;;4964237;28;20181;-43
2022/11/19 00:23:03;;;;;;;10.93;6.00;;;;;;;;;;4963484;28;20446;-43
2022/11/19 00:25:30;;;;;;;8.50;6.13;;;;;;;;;;4963725;28;20422;-44
2022/11/19 00:27:56;;;;;;;7.40;5.53;;;;;;;;;;4962991;28;20424;-43
2022/11/19 00:30:22;;;;;;;7.07;5.18;;;;;;;;;;4964165;28;20589;-43
2022/11/19 00:32:48;;;;;;;9.57;6.77;;;;;;;;;;4964968;28;20201;-43
2022/11/19 00:35:14;;;;;;;8.67;6.23;;;;;;;;;;4960946;28;20429;-43
2022/11/19 00:37:40;;;;;;;9.70;6.37;;;;;;;;;;4959512;28;20515;-43
2022/11/19 00:40:07;;;;;;;9.20;6.40;;;;;;;;;;4963781;28;20835;-43
2022/11/19 00:42:34;;;;;;;9.23;6.50;;;;;;;;;;4963500;28;20440;-43
2022/11/19 00:45:00;;;;;;;7.05;6.10;;;;;;;;;;4964583;28;20233;-43
2022/11/19 00:47:26;;;;;;;9.67;6.23;;;;;;;;;;4964346;28;20589;-43
2022/11/19 00:49:51;;;;;;;11.70;7.40;;;;;;;;;;4966744;28;20453;-43
2022/11/19 00:52:17;;;;;;;8.77;6.33;;;;;;;;;;4956224;28;20474;-43
2022/11/19 00:54:43;;;;;;;8.17;6.30;;;;;;;;;;4966607;28;20417;-43
2022/11/19 00:57:09;;;;;;;10.13;6.60;;;;;;;;;;4963689;28;20410;-43
2022/11/19 00:59:35;;;;;;;9.73;6.43;;;;;;;;;;4965657;28;20488;-43
2022/11/19 01:02:01;;;;;;;16.03;7.40;;;;;;;;;;4960878;28;20429;-42
2022/11/19 01:04:27;;;;;;;10.40;6.90;;;;;;;;;;4965182;28;20414;-43
2022/11/19 01:06:53;;;;;;;13.47;8.50;;;;;;;;;;4961345;28;20548;-43
2022/11/19 01:09:19;;;;;;;15.93;8.45;;;;;;;;;;4968878;28;20449;-43
2022/11/19 01:11:45;;;;;;;13.57;8.70;;;;;;;;;;4965641;28;20772;-42
2022/11/19 01:14:12;;;;;;;14.90;9.83;;;;;;;;;;4962893;28;20548;-43
2022/11/19 01:16:39;;;;;;;14.63;8.55;;;;;;;;;;4964244;28;20413;-42
2022/11/19 01:19:06;;;;;;;11.40;7.55;;;;;;;;;;4962802;28;20243;-43
2022/11/19 01:21:33;;;;;;;14.25;8.57;;;;;;;;;;4962482;28;20198;-43
2022/11/19 01:23:59;;;;;;;15.13;9.00;;;;;;;;;;4962824;28;20186;-43
2022/11/19 01:26:26;;;;;;;13.77;8.98;;;;;;;;;;4971070;28;20446;-43
2022/11/19 01:28:52;;;;;;;11.68;8.32;;;;;;;;;;4968221;28;20181;-43
2022/11/19 01:31:25;;;;;;;13.88;8.85;;;;;;;;;;4959861;28;20221;-42
2022/11/19 01:33:52;;;;;;;13.43;8.93;;;;;;;;;;4951178;28;20233;-42
2022/11/19 01:36:22;;;;;;;13.85;9.95;;;;;;;;;;4964571;28;20178;-43
2022/11/19 01:38:49;;;;;;;17.85;9.93;;;;;;;;;;4967515;28;20199;-43
2022/11/19 01:41:29;;;;;;;15.60;9.63;;;;;;;;;;4964207;28;20194;-42
2022/11/19 01:43:57;;;;;;;15.55;10.73;;;;;;;;;;4953944;28;20196;-43
2022/11/19 01:46:25;;;;;;;18.17;10.65;;;;;;;;;;4962990;28;20633;-43
2022/11/19 01:48:53;;;;;;;15.32;10.10;;;;;;;;;;4960530;28;20233;-43
2022/11/19 01:51:27;;;;;;;24.27;14.75;;;;;;;;;;4970529;28;20217;-43
2022/11/19 01:53:55;;;;;;;18.17;11.75;;;;;;;;;;4956302;28;20186;-43
2022/11/19 01:56:22;;;;;;;21.15;14.55;;;;;;;;;;4961713;28;20189;-43
2022/11/19 01:58:50;;;;;;;14.90;10.70;;;;;;;;;;4954736;28;20185;-43
2022/11/19 02:01:17;;;;;;;17.80;11.75;;;;;;;;;;4962605;28;20194;-43
2022/11/19 02:03:43;;;;;;;20.73;11.98;;;;;;;;;;4952923;28;20677;-43
2022/11/19 02:06:10;;;;;;;20.87;12.83;;;;;;;;;;4961675;28;20178;-43
2022/11/19 02:08:48;;;;;;;18.02;12.43;;;;;;;;;;4966716;28;20796;-43
2022/11/19 02:11:18;;;;;;;20.15;12.90;;;;;;;;;;4965558;28;20577;-43
2022/11/19 02:13:55;;;;;;;23.67;14.10;;;;;;;;;;4961752;28;20533;-43
2022/11/19 02:16:25;;;;;;;23.00;13.95;;;;;;;;;;4958199;28;20174;-43
2022/11/19 02:18:55;;;;;;;23.55;13.27;;;;;;;;;;4965069;28;20169;-43
2022/11/19 02:21:21;;;;;;;19.52;14.65;;;;;;;;;;4962704;28;20213;-43
2022/11/19 02:23:53;;;;;;;20.63;13.30;;;;;;;;;;4963521;28;20538;-43
2022/11/19 02:26:37;;;;;;;23.75;14.00;;;;;;;;;;4963867;28;20429;-43
2022/11/19 02:29:03;;;;;;;21.65;13.73;;;;;;;;;;4958441;28;20719;-43
2022/11/19 02:31:34;;;;;;;20.87;14.43;;;;;;;;;;4961898;28;20210;-44
2022/11/19 02:34:12;;;;;;;21.83;14.57;;;;;;;;;;4961115;28;20783;-43
2022/11/19 02:37:00;;;;;;;20.85;14.15;;;;;;;;;;4957234;28;20651;-43
2022/11/19 02:39:38;;;;;;;25.45;15.30;;;;;;;;;;4965615;28;20170;-43
2022/11/19 02:42:07;;;;;;;23.00;14.82;;;;;;;;;;4963786;28;20241;-43
2022/11/19 02:47:21;;;;;;;24.10;16.17;;;;;;;;;;4963025;28;20616;-43
2022/11/19 02:49:50;;;;;;;23.63;15.73;;;;;;;;;;4965112;28;20183;-43
2022/11/19 02:52:17;;;;;;;26.42;16.50;;;;;;;;;;4960410;28;20576;-43
2022/11/19 02:54:43;;;;;;;24.13;15.20;;;;;;;;;;4961993;28;20190;-43
2022/11/19 02:57:10;;;;;;;27.33;15.97;;;;;;;;;;4962213;28;20166;-43
2022/11/19 03:05:26;;;;;;;26.67;14.85;;;;;;;;;;4963260;28;20225;-43
2022/11/19 03:07:53;;;;;;;23.58;15.15;;;;;;;;;;4962525;28;20183;-43
2022/11/19 03:10:22;;;;;;;24.92;15.02;;;;;;;;;;4963866;28;20186;-43
2022/11/19 03:12:58;;;;;;;22.73;13.65;;;;;;;;;;4960093;28;20663;-43
2022/11/19 03:18:21;;;;;;;25.58;16.65;;;;;;;;;;4967212;28;20277;-43
2022/11/19 03:21:02;;;;;;;23.40;15.88;;;;;;;;;;4963028;28;20201;-43
2022/11/19 03:23:39;;;;;;;28.42;15.88;;;;;;;;;;4959185;28;20178;-43
2022/11/19 03:26:22;;;;;;;25.40;15.95;;;;;;;;;;4957610;28;20182;-43
2022/11/19 03:28:49;;;;;;;24.30;15.10;;;;;;;;;;4964803;28;20185;-43
2022/11/19 03:31:17;;;;;;;28.92;17.60;;;;;;;;;;4961801;28;20576;-44
2022/11/19 03:33:46;;;;;;;31.08;16.10;;;;;;;;;;4963332;28;20277;-43
2022/11/19 03:36:18;;;;;;;20.15;13.63;;;;;;;;;;4962176;28;20246;-43
2022/11/19 03:38:46;;;;;;;28.67;15.30;;;;;;;;;;4961710;28;20174;-42
2022/11/19 03:41:13;;;;;;;28.58;16.95;;;;;;;;;;4961779;28;20598;-43
2022/11/19 03:43:40;;;;;;;22.27;14.82;;;;;;;;;;4962413;28;20186;-43
2022/11/19 03:46:09;;;;;;;27.17;15.60;;;;;;;;;;4970551;28;20178;-43
2022/11/19 03:48:36;;;;;;;33.78;17.63;;;;;;;;;;4965309;28;20584;-43
2022/11/19 03:51:05;;;;;;;26.58;16.60;;;;;;;;;;4962288;28;20588;-43
2022/11/19 03:53:31;;;;;;;25.42;15.45;;;;;;;;;;4957049;28;20183;-43
2022/11/19 03:56:05;;;;;;;28.43;16.57;;;;;;;;;;4964438;28;20224;-43
2022/11/19 03:58:36;;;;;;;29.88;17.83;;;;;;;;;;4964647;28;20461;-43
2022/11/19 04:01:02;;;;;;;27.52;17.45;;;;;;;;;;4964480;28;20238;-43
2022/11/19 04:03:27;;;;;;;23.20;15.80;;;;;;;;;;4968158;28;20616;-43
2022/11/19 04:05:53;;;;;;;28.60;18.13;;;;;;;;;;4965576;28;20794;-43
2022/11/19 04:08:19;;;;;;;27.80;16.00;;;;;;;;;;4960801;28;20859;-42
2022/11/19 04:10:45;;;;;;;28.10;16.93;;;;;;;;;;4966846;28;20830;-43
2022/11/19 04:13:11;;;;;;;27.47;16.57;;;;;;;;;;4965434;28;20885;-44
2022/11/19 04:15:37;;;;;;;27.40;17.90;;;;;;;;;;4967482;28;20747;-43
2022/11/19 04:18:03;;;;;;;27.50;16.90;;;;;;;;;;4964073;28;20786;-43
2022/11/19 04:20:29;;;;;;;28.88;18.55;;;;;;;;;;4966301;28;20776;-43
2022/11/19 04:22:55;;;;;;;29.73;17.60;;;;;;;;;;4964287;28;20181;-43
2022/11/19 04:25:21;;;;;;;27.20;16.20;;;;;;;;;;4964640;28;20405;-43
2022/11/19 04:27:47;;;;;;;29.42;16.80;;;;;;;;;;4967922;28;20915;-43
2022/11/19 04:30:13;;;;;;;32.70;18.33;;;;;;;;;;4963693;28;20196;-43
2022/11/19 04:32:40;;;;;;;28.20;17.27;;;;;;;;;;4964922;28;20460;-43
2022/11/19 04:35:06;;;;;;;30.13;19.02;;;;;;;;;;4963966;28;20189;-43
2022/11/19 04:37:31;;;;;;;26.92;16.30;;;;;;;;;;4964621;28;20175;-43
2022/11/19 04:39:57;;;;;;;28.60;17.30;;;;;;;;;;4963502;28;20190;-43
2022/11/19 04:42:23;;;;;;;27.27;16.87;;;;;;;;;;4969504;28;20484;-43
2022/11/19 04:44:49;;;;;;;26.97;15.60;;;;;;;;;;4966451;28;20941;-44
2022/11/19 04:47:15;;;;;;;28.40;17.10;;;;;;;;;;4961816;28;20922;-43
2022/11/19 04:49:41;;;;;;;25.70;16.40;;;;;;;;;;4963159;28;20499;-43
2022/11/19 04:52:07;;;;;;;27.57;16.23;;;;;;;;;;4963444;28;20461;-43
2022/11/19 04:54:33;;;;;;;30.50;16.87;;;;;;;;;;4966780;28;20436;-42
2022/11/19 04:56:59;;;;;;;30.95;17.85;;;;;;;;;;4964832;28;20410;-43
2022/11/19 04:59:25;;;;;;;24.13;16.27;;;;;;;;;;4967931;28;20185;-43
2022/11/19 05:01:51;;;;;;;27.90;17.40;;;;;;;;;;4964497;28;20433;-43
2022/11/19 05:04:17;;;;;;;28.48;16.88;;;;;;;;;;4960045;28;20789;-44
2022/11/19 05:06:43;;;;;;;26.60;15.73;;;;;;;;;;4966433;28;20185;-43
2022/11/19 05:09:09;;;;;;;27.70;17.77;;;;;;;;;;4964600;28;20932;-44
2022/11/19 05:11:35;;;;;;;31.83;19.67;;;;;;;;;;4969858;28;20205;-43
2022/11/19 05:14:01;;;;;;;25.73;17.00;;;;;;;;;;4963098;28;20738;-43
2022/11/19 05:16:27;;;;;;;28.60;16.53;;;;;;;;;;4966067;28;20433;-43
2022/11/19 05:18:53;;;;;;;29.90;18.40;;;;;;;;;;4963151;28;20413;-43
2022/11/19 05:21:19;;;;;;;30.40;17.37;;;;;;;;;;4963619;28;20432;-43
2022/11/19 05:23:44;;;;;;;27.53;16.30;;;;;;;;;;4966816;28;20417;-44
2022/11/19 05:26:10;;;;;;;27.77;17.63;;;;;;;;;;4962774;28;20414;-43
2022/11/19 05:28:36;;;;;;;33.10;17.20;;;;;;;;;;4965090;28;20405;-43
2022/11/19 05:31:03;;;;;;;28.77;17.87;;;;;;;;;;4962352;28;20564;-44
2022/11/19 05:33:29;;;;;;;30.05;18.42;;;;;;;;;;4964091;28;20429;-43
2022/11/19 05:35:54;;;;;;;33.87;17.73;;;;;;;;;;4961438;28;20174;-43
2022/11/19 05:38:20;;;;;;;31.70;18.13;;;;;;;;;;4963526;28;20412;-42
2022/11/19 05:40:46;;;;;;;35.80;19.53;;;;;;;;;;4964773;28;20413;-44
2022/11/19 05:43:12;;;;;;;31.13;17.10;;;;;;;;;;4961057;28;20418;-43
2022/11/19 05:45:38;;;;;;;37.93;20.50;;;;;;;;;;4962773;28;20502;-43
2022/11/19 05:48:05;;;;;;;30.67;18.33;;;;;;;;;;4962408;28;20414;-43
2022/11/19 05:50:31;;;;;;;30.98;18.52;;;;;;;;;;4961842;28;20402;-43
2022/11/19 05:52:58;;;;;;;30.37;18.83;;;;;;;;;;4962229;28;20273;-43
2022/11/19 05:55:24;;;;;;;34.95;18.20;;;;;;;;;;4967142;28;20923;-42
2022/11/19 05:57:50;;;;;;;28.43;16.00;;;;;;;;;;4963782;28;20180;-43
2022/11/19 06:00:19;;;;;;;29.42;18.77;;;;;;;;;;4959171;28;20406;-42
2022/11/19 06:02:45;;;;;;;34.90;19.85;;;;;;;;;;4959808;28;20829;-43
2022/11/19 06:05:11;;;;;;;32.40;17.40;;;;;;;;;;4963043;28;20692;-42
2022/11/19 06:07:37;;;;;;;38.28;19.75;;;;;;;;;;4964569;28;20448;-43
2022/11/19 06:10:03;;;;;;;32.65;17.88;;;;;;;;;;4962375;28;20395;-42
2022/11/19 06:12:29;;;;;;;37.80;19.25;;;;;;;;;;4958345;28;20210;-43
2022/11/19 06:14:55;;;;;;;35.47;21.63;;;;;;;;;;4963049;28;20191;-43
2022/11/19 06:17:21;;;;;;;38.13;19.20;;;;;;;;;;4957348;28;20446;-43
2022/11/19 06:19:47;;;;;;;34.50;18.65;;;;;;;;;;4965000;28;20416;-43
2022/11/19 06:22:13;;;;;;;35.87;20.03;;;;;;;;;;4961939;28;20206;-43
2022/11/19 06:24:39;;;;;;;39.13;19.87;;;;;;;;;;4963813;28;20488;-43
2022/11/19 06:27:04;;;;;;;38.53;17.70;;;;;;;;;;4969841;28;20405;-43
2022/11/19 06:29:30;;;;;;;43.00;20.47;;;;;;;;;;4961782;28;20425;-43
2022/11/19 06:31:56;;;;;;;34.67;18.30;;;;;;;;;;4960609;28;20473;-43
2022/11/19 06:34:22;;;;;;;38.40;18.80;;;;;;;;;;4962134;28;20428;-43
2022/11/19 06:36:48;;;;;;;32.10;18.08;;;;;;;;;;4964720;28;20961;-42
2022/11/19 06:39:14;;;;;;;34.17;18.80;;;;;;;;;;4960274;28;20194;-43
2022/11/19 06:41:40;;;;;;;33.67;17.57;;;;;;;;;;4961746;28;20472;-43
2022/11/19 06:44:06;;;;;;;30.77;18.67;;;;;;;;;;4961819;28;20414;-43
2022/11/19 06:46:32;;;;;;;34.80;17.80;;;;;;;;;;4961699;28;20402;-43
2022/11/19 06:48:58;;;;;;;30.57;15.67;;;;;;;;;;4961307;28;20414;-43
2022/11/19 06:51:24;;;;;;;33.80;19.27;;;;;;;;;;4966071;28;20837;-43
2022/11/19 06:53:50;;;;;;;29.87;15.73;;;;;;;;;;4963290;28;20424;-42
2022/11/19 06:56:16;;;;;;;31.70;16.83;;;;;;;;;;4958712;28;20414;-42
2022/11/19 06:58:42;;;;;;;29.90;16.20;;;;;;;;;;4959878;28;20421;-43
2022/11/19 07:01:08;;;;;;;31.07;17.63;;;;;;;;;;4961681;28;20426;-43
2022/11/19 07:03:34;;;;;;;28.73;15.20;;;;;;;;;;4964570;28;20405;-43
2022/11/19 07:06:02;;;;;;;30.35;15.27;;;;;;;;;;4962236;28;20206;-43
2022/11/19 07:08:32;;;;;;;31.02;15.90;;;;;;;;;;4957797;28;20261;-42
2022/11/19 07:10:58;;;;;;;32.60;16.60;;;;;;;;;;4954910;28;20206;-42
2022/11/19 07:13:55;;;;;;;32.47;17.35;;;;;;;;;;4953875;28;20181;-43
2022/11/19 07:16:10;;;;;;;27.67;14.93;;;;;;;;;;4963356;28;20182;-44
2022/11/19 07:18:36;;;;;;;28.00;16.17;;;;;;;;;;4960247;28;20177;-43
2022/11/19 07:21:02;;;;;;;30.10;16.07;;;;;;;;;;4961316;28;20426;-46
2022/11/19 07:23:31;;;;;;;31.27;16.77;;;;;;;;;;4966860;28;20428;-43
2022/11/19 07:26:00;;;;;;;28.88;17.00;;;;;;;;;;4963905;28;20406;-44
2022/11/19 07:28:26;;;;;;;30.38;17.45;;;;;;;;;;4958766;28;20184;-43
2022/11/19 07:30:52;;;;;;;31.07;17.30;;;;;;;;;;4959205;28;20572;-45
2022/11/19 07:33:18;;;;;;;29.93;16.63;;;;;;;;;;4968870;28;20413;-44
2022/11/19 07:35:44;;;;;;;31.40;16.17;;;;;;;;;;4958998;28;20417;-43
2022/11/19 07:38:10;;;;;;;28.93;14.20;;;;;;;;;;4965800;28;20418;-44
2022/11/19 07:40:36;;;;;;;28.70;16.03;;;;;;;;;;4962944;28;20418;-44
2022/11/19 07:43:02;;;;;;;24.60;14.83;;;;;;;;;;4964843;28;20402;-43
2022/11/19 07:45:28;;;;;;;34.10;18.30;;;;;;;;;;4964931;28;20409;-45
2022/11/19 07:47:54;;;;;;;30.00;16.20;;;;;;;;;;4965004;28;20429;-43
2022/11/19 07:50:20;;;;;;;29.33;17.20;;;;;;;;;;4968131;28;20523;-44
2022/11/19 07:52:46;;;;;;;25.15;15.82;;;;;;;;;;4964144;28;20879;-44
2022/11/19 07:55:12;;;;;;;28.08;16.77;;;;;;;;;;4957100;28;20182;-44
2022/11/19 07:57:38;;;;;;;26.93;15.03;;;;;;;;;;4968005;28;20528;-43
2022/11/19 08:00:05;;;;;;;26.60;15.60;;;;;;;;;;4960610;28;20425;-43
2022/11/19 08:02:31;;;;;;;27.08;14.60;;;;;;;;;;4967377;28;20429;-43
2022/11/19 08:04:58;;;;;;;24.03;13.50;;;;;;;;;;4966122;28;20177;-43
2022/11/19 08:07:24;;;;;;;28.92;17.17;;;;;;;;;;4964793;28;20428;-43
2022/11/19 08:09:50;;;;;;;29.27;16.43;;;;;;;;;;4963157;28;20260;-43
2022/11/19 08:12:16;;;;;;;26.30;15.73;;;;;;;;;;4965191;28;20450;-44
2022/11/19 08:14:41;;;;;;;27.57;14.63;;;;;;;;;;4966659;28;20258;-44
2022/11/19 08:19:52;;;;;;;30.20;15.68;;;;;;;;;;4961416;28;20748;-45
2022/11/19 08:22:18;;;;;;;23.57;14.53;;;;;;;;;;4964403;28;20272;-43
2022/11/19 08:24:44;;;;;;;25.67;14.70;;;;;;;;;;4966122;28;20484;-43
2022/11/19 08:27:10;;;;;;;24.57;14.50;;;;;;;;;;4973218;28;20421;-43
2022/11/19 08:29:36;;;;;;;29.07;16.17;;;;;;;;;;4965183;28;20417;-43
2022/11/19 08:32:02;;;;;;;25.17;13.47;;;;;;;;;;4966079;28;20962;-44
2022/11/19 08:34:28;;;;;;;24.05;13.30;;;;;;;;;;4961084;28;21009;-43
2022/11/19 08:36:54;;;;;;;26.88;15.10;;;;;;;;;;4960975;28;20189;-44
2022/11/19 08:39:20;;;;;;;19.52;12.90;;;;;;;;;;4965776;28;20544;-43
2022/11/19 08:44:30;;;;;;;22.65;13.88;;;;;;;;;;4958489;28;20216;-43
2022/11/19 08:46:56;;;;;;;21.40;13.07;;;;;;;;;;4964110;28;20201;-43
2022/11/19 08:49:22;;;;;;;25.15;13.32;;;;;;;;;;4967673;28;20510;-43
2022/11/19 08:51:48;;;;;;;22.77;13.17;;;;;;;;;;4966423;28;20292;-43
2022/11/19 08:54:14;;;;;;;18.53;12.30;;;;;;;;;;4966345;28;20397;-43
2022/11/19 08:56:40;;;;;;;19.67;12.57;;;;;;;;;;4966681;28;20417;-45
2022/11/19 08:59:06;;;;;;;32.83;13.48;;;;;;;;;;4961242;28;20897;-43
2022/11/19 09:01:32;;;;;;;19.90;12.97;;;;;;;;;;4955848;28;20205;-43
2022/11/19 09:03:58;;;;;;;18.63;12.10;;;;;;;;;;4963312;28;20454;-43
2022/11/19 09:06:24;;;;;;;17.60;11.60;;;;;;;;;;4963166;28;20433;-43
2022/11/19 09:08:50;;;;;;;19.23;11.30;;;;;;;;;;4963311;28;20979;-45
2022/11/19 09:11:17;;;;;;;17.55;11.10;;;;;;;;;;4958452;28;20216;-45
2022/11/19 09:13:43;;;;;;;20.25;12.00;;;;;;;;;;4964471;28;20552;-45
2022/11/19 09:16:10;;;;;;;25.53;12.00;;;;;;;;;;4959551;28;20174;-43
2022/11/19 09:18:40;;;;;;;16.75;11.20;;;;;;;;;;4962572;28;20484;-44
2022/11/19 09:21:07;;;;;;;17.08;11.40;;;;;;;;;;4956470;28;20190;-43
2022/11/19 09:23:33;;;;;;;19.35;10.77;;;;;;;;;;4966352;28;20181;-43
2022/11/19 09:26:00;;;;;;;22.80;12.20;;;;;;;;;;4958828;28;20190;-43
2022/11/19 09:28:27;;;;;;;16.35;11.10;;;;;;;;;;4966960;28;20446;-46
2022/11/19 09:30:57;;;;;;;14.93;10.05;;;;;;;;;;4953710;28;20257;-44
2022/11/19 09:33:24;;;;;;;16.65;11.75;;;;;;;;;;4965091;28;20237;-45
2022/11/19 09:35:50;;;;;;;17.77;12.10;;;;;;;;;;4960533;28;20659;-45
2022/11/19 09:38:16;;;;;;;16.03;10.20;;;;;;;;;;4963773;28;20209;-43
2022/11/19 09:40:50;;;;;;;18.00;11.63;;;;;;;;;;4956872;28;20410;-44
2022/11/19 09:43:43;;;;;;;14.40;10.68;;;;;;;;;;4959645;28;20406;-44
2022/11/19 09:46:15;;;;;;;21.08;12.73;;;;;;;;;;4957405;28;20185;-43
2022/11/19 09:48:41;;;;;;;16.45;11.35;;;;;;;;;;4956078;28;20177;-43
2022/11/19 09:51:09;;;;;;;21.15;12.98;;;;;;;;;;4959619;28;20213;-44
2022/11/19 09:53:40;;;;;;;16.45;11.10;;;;;;;;;;4962494;28;20213;-44
2022/11/19 09:56:06;;;;;;;15.43;10.50;;;;;;;;;;4964362;28;20169;-45
2022/11/19 09:58:41;;;;;;;18.10;10.85;;;;;;;;;;4960443;28;20663;-44
2022/11/19 10:01:10;;;;;;;14.55;10.15;;;;;;;;;;4954230;28;20214;-43
2022/11/19 10:03:39;;;;;;;15.95;11.00;;;;;;;;;;4965228;28;20239;-42
2022/11/19 10:06:13;;;;;;;18.20;10.85;;;;;;;;;;4959100;28;20181;-43
2022/11/19 10:08:39;;;;;;;16.38;10.38;;;;;;;;;;4964651;28;20219;-43
2022/11/19 10:11:25;;;;;;;15.43;10.50;;;;;;;;;;4961002;28;20572;-42
2022/11/19 10:14:07;;;;;;;20.13;11.57;;;;;;;;;;4957178;28;20400;-42
2022/11/19 10:16:45;;;;;;;17.00;11.35;;;;;;;;;;4961089;28;20257;-42
2022/11/19 10:19:30;;;;;;;15.73;9.82;;;;;;;;;;4962824;28;20181;-42
2022/11/19 10:22:02;;;;;;;15.15;10.05;;;;;;;;;;4962164;28;20213;-43
2022/11/19 10:24:44;;;;;;;13.10;10.20;;;;;;;;;;4965937;28;20233;-43
2022/11/19 10:27:18;;;;;;;19.55;10.45;;;;;;;;;;4966661;28;20177;-42
2022/11/19 10:29:45;;;;;;;13.70;10.07;;;;;;;;;;4959047;28;20256;-42
2022/11/19 10:32:31;;;;;;;15.43;10.27;;;;;;;;;;4966653;28;20204;-43
2022/11/19 10:34:59;;;;;;;14.07;9.00;;;;;;;;;;4962825;28;20236;-42
2022/11/19 10:37:29;;;;;;;13.30;9.60;;;;;;;;;;4964210;28;20182;-42
2022/11/19 10:39:59;;;;;;;14.65;9.57;;;;;;;;;;4960461;28;20237;-42
2022/11/19 10:42:27;;;;;;;12.80;8.73;;;;;;;;;;4962121;28;20224;-42
2022/11/19 10:44:56;;;;;;;13.93;10.55;;;;;;;;;;4960711;28;20825;-42
2022/11/19 10:47:43;;;;;;;12.38;9.48;;;;;;;;;;4963570;28;20680;-42
2022/11/19 10:50:15;;;;;;;11.32;8.77;;;;;;;;;;4961055;28;20734;-43
2022/11/19 10:52:43;;;;;;;13.88;9.30;;;;;;;;;;4963530;28;20627;-42
2022/11/19 10:55:27;;;;;;;12.15;9.20;;;;;;;;;;4962243;28;20212;-43
2022/11/19 10:58:01;;;;;;;13.10;9.63;;;;;;;;;;4964699;28;20620;-42
2022/11/19 11:00:27;;;;;;;12.73;9.40;;;;;;;;;;4961957;28;20264;-43
2022/11/19 11:02:58;;;;;;;10.73;8.63;;;;;;;;;;4970554;28;20605;-42
2022/11/19 11:05:24;;;;;;;11.05;8.45;;;;;;;;;;4961157;28;20300;-43
2022/11/19 11:07:55;;;;;;;12.90;9.03;;;;;;;;;;4961253;28;20733;-42
2022/11/19 11:10:27;;;;;;;17.05;10.68;;;;;;;;;;4961431;28;20411;-42
2022/11/19 11:15:49;;;;;;;17.27;11.97;;;;;;;;;;4964878;28;20184;-42
2022/11/19 11:18:15;;;;;;;14.33;10.83;;;;;;;;;;4961384;28;20457;-42
2022/11/19 11:20:46;;;;;;;11.10;9.27;;;;;;;;;;4967832;28;20417;-42
2022/11/19 11:23:15;;;;;;;12.43;9.85;;;;;;;;;;4963171;28;20410;-43
2022/11/19 11:25:50;;;;;;;11.55;9.25;;;;;;;;;;4956160;28;20178;-42
2022/11/19 11:28:18;;;;;;;13.87;9.20;;;;;;;;;;4970178;28;20180;-43
2022/11/19 11:30:54;;;;;;;12.00;9.70;;;;;;;;;;4953774;28;20407;-43
2022/11/19 11:33:23;;;;;;;14.10;9.77;;;;;;;;;;4962105;28;20949;-42
2022/11/19 11:35:49;;;;;;;11.90;8.63;;;;;;;;;;4958826;28;20422;-43
2022/11/19 11:38:18;;;;;;;12.23;9.63;;;;;;;;;;4962370;28;20892;-43
2022/11/19 11:40:54;;;;;;;11.53;9.07;;;;;;;;;;4955852;28;20504;-43
2022/11/19 11:43:20;;;;;;;13.80;9.10;;;;;;;;;;4962354;28;20415;-43
2022/11/19 11:45:46;;;;;;;12.57;10.10;;;;;;;;;;4960079;28;20440;-43
2022/11/19 11:48:19;;;;;;;11.17;8.63;;;;;;;;;;4955295;28;20991;-43
2022/11/19 11:50:45;;;;;;;12.83;9.70;;;;;;;;;;4948267;28;20505;-43
2022/11/19 11:53:14;;;;;;;14.13;9.77;;;;;;;;;;4959469;28;20416;-43
2022/11/19 11:55:40;;;;;;;9.93;8.93;;;;;;;;;;4957145;28;20415;-43
2022/11/19 11:58:25;;;;;;;12.43;9.80;;;;;;;;;;4958274;28;20418;-43
2022/11/19 12:00:53;;;;;;;10.97;8.47;;;;;;;;;;4954751;28;21032;-43
2022/11/19 12:03:19;;;;;;;12.67;9.83;;;;;;;;;;4962869;28;20773;-42
2022/11/19 12:06:04;;;;;;;12.70;9.30;;;;;;;;;;4962323;28;20422;-43
2022/11/19 12:08:40;;;;;;;12.27;9.87;;;;;;;;;;4962993;28;20411;-42
2022/11/19 12:11:22;;;;;;;12.90;9.53;;;;;;;;;;4958516;28;21078;-43
2022/11/19 12:13:48;;;;;;;11.25;8.80;;;;;;;;;;4967633;28;20774;-42
2022/11/19 12:16:26;;;;;;;12.65;9.77;;;;;;;;;;4959317;28;20261;-42
2022/11/19 12:19:07;;;;;;;12.68;9.70;;;;;;;;;;4967360;28;20699;-43
2022/11/19 12:21:38;;;;;;;12.20;9.13;;;;;;;;;;4953749;28;20197;-43
2022/11/19 12:24:19;;;;;;;11.47;7.90;;;;;;;;;;4967055;28;20179;-42
2022/11/19 12:26:57;;;;;;;12.60;8.47;;;;;;;;;;4964591;28;20417;-43
2022/11/19 12:29:23;;;;;;;15.20;10.73;;;;;;;;;;4962682;28;20781;-42
2022/11/19 12:32:14;;;;;;;13.10;10.23;;;;;;;;;;4959051;28;20561;-43
2022/11/19 12:35:00;;;;;;;12.50;9.13;;;;;;;;;;4957400;28;20429;-43
2022/11/19 12:37:52;;;;;;;15.93;10.35;;;;;;;;;;4966162;28;20186;-42
2022/11/19 12:40:20;;;;;;;13.13;8.87;;;;;;;;;;4965261;28;20210;-43
2022/11/19 12:42:46;;;;;;;13.43;9.60;;;;;;;;;;4960896;28;20438;-43
2022/11/19 12:45:18;;;;;;;12.20;9.43;;;;;;;;;;4957592;28;20185;-43
2022/11/19 12:48:17;;;;;;;11.77;8.90;;;;;;;;;;4963604;28;20587;-43
2022/11/19 12:50:51;;;;;;;15.25;10.68;;;;;;;;;;4945639;28;20214;-43
2022/11/19 12:53:23;;;;;;;14.52;10.32;;;;;;;;;;4964068;28;20219;-43
2022/11/19 12:56:08;;;;;;;14.23;10.25;;;;;;;;;;4959731;28;20529;-42
2022/11/19 12:58:36;;;;;;;12.15;8.73;;;;;;;;;;4956857;28;20633;-43
2022/11/19 13:01:12;;;;;;;12.95;8.80;;;;;;;;;;4962802;28;20567;-42
2022/11/19 13:03:56;;;;;;;14.20;9.85;;;;;;;;;;4949238;28;20245;-42
2022/11/19 13:06:28;;;;;;;14.15;9.73;;;;;;;;;;4965259;28;20197;-42
2022/11/19 13:09:02;;;;;;;13.27;9.52;;;;;;;;;;4957365;28;20555;-43
2022/11/19 13:11:35;;;;;;;14.75;10.30;;;;;;;;;;4966149;28;20202;-43
2022/11/19 13:14:14;;;;;;;12.82;9.80;;;;;;;;;;4960171;28;20671;-42
2022/11/19 13:16:42;;;;;;;15.43;9.13;;;;;;;;;;4956383;28;20742;-42
2022/11/19 13:19:15;;;;;;;13.57;9.63;;;;;;;;;;4957648;28;20181;-43
2022/11/19 13:21:45;;;;;;;12.13;9.68;;;;;;;;;;4962503;28;20194;-44
2022/11/19 13:24:28;;;;;;;12.65;9.50;;;;;;;;;;4958857;28;20211;-43
2022/11/19 13:26:55;;;;;;;14.25;10.30;;;;;;;;;;4970849;28;20185;-43
2022/11/19 13:29:41;;;;;;;13.40;9.10;;;;;;;;;;4955319;28;20699;-42
2022/11/19 13:32:26;;;;;;;12.75;10.25;;;;;;;;;;4964871;28;20205;-43
2022/11/19 13:35:11;;;;;;;12.40;9.35;;;;;;;;;;4961304;28;20185;-42
2022/11/19 13:37:40;;;;;;;14.27;9.75;;;;;;;;;;4957474;28;20174;-43
2022/11/19 13:40:14;;;;;;;12.20;8.85;;;;;;;;;;4964983;28;20177;-43
2022/11/19 13:45:25;;;;;;;13.38;9.77;;;;;;;;;;4955627;28;20266;-43
2022/11/19 13:47:51;;;;;;;12.38;8.88;;;;;;;;;;4959282;28;20185;-43
2022/11/19 13:50:30;;;;;;;13.93;9.83;;;;;;;;;;4963203;28;20183;-43
2022/11/19 13:52:58;;;;;;;12.18;9.18;;;;;;;;;;4963353;28;20460;-42
2022/11/19 13:55:27;;;;;;;14.90;10.02;;;;;;;;;;4957325;28;20177;-43
2022/11/19 13:57:54;;;;;;;12.98;9.88;;;;;;;;;;4962575;28;20179;-42
2022/11/19 14:00:24;;;;;;;11.25;8.35;;;;;;;;;;4963340;28;20264;-43
2022/11/19 14:02:50;;;;;;;14.88;10.38;;;;;;;;;;4950848;28;20228;-43
2022/11/19 14:05:28;;;;;;;14.37;10.00;;;;;;;;;;4952884;28;20529;-43
2022/11/19 14:07:54;;;;;;;11.27;8.63;;;;;;;;;;4953136;28;20471;-43
2022/11/19 14:10:20;;;;;;;11.50;9.40;;;;;;;;;;4950859;28;20723;-43
2022/11/19 14:13:05;;;;;;;12.07;8.97;;;;;;;;;;4952765;28;20469;-43
2022/11/19 14:27:14;;;;;;;12.55;8.93;;;;;;;;;;4959011;28;20698;-43
2022/11/19 14:29:43;;;;;;;13.85;9.88;;;;;;;;;;4958046;28;20178;-43
2022/11/19 14:32:09;;;;;;;10.27;8.30;;;;;;;;;;4961573;28;20228;-43
2022/11/19 14:34:36;;;;;;;11.60;8.27;;;;;;;;;;4963554;28;20307;-43
2022/11/19 14:37:04;;;;;;;13.60;10.30;;;;;;;;;;4962257;28;20469;-42
2022/11/19 14:39:31;;;;;;;12.88;9.75;;;;;;;;;;4959633;28;20181;-42
2022/11/19 14:42:16;;;;;;;15.30;9.90;;;;;;;;;;4964274;28;20205;-42
2022/11/19 14:44:43;;;;;;;14.38;9.70;;;;;;;;;;4952870;28;20269;-43
2022/11/19 14:47:21;;;;;;;14.65;9.55;;;;;;;;;;4963956;28;20177;-42
2022/11/19 14:49:48;;;;;;;14.95;10.13;;;;;;;;;;4964371;28;20556;-42
2022/11/19 14:52:29;;;;;;;17.30;10.77;;;;;;;;;;4959706;28;20198;-43
2022/11/19 14:55:00;;;;;;;16.40;10.05;;;;;;;;;;4959717;28;20170;-42
2022/11/19 14:57:28;;;;;;;13.73;10.15;;;;;;;;;;4961737;28;20169;-43
2022/11/19 15:00:26;;;;;;;12.52;9.18;;;;;;;;;;4954778;28;20214;-43
2022/11/19 15:02:53;;;;;;;11.75;8.75;;;;;;;;;;4934245;28;20289;-42
2022/11/19 15:05:21;;;;;;;14.48;10.02;;;;;;;;;;4955745;28;20178;-42
2022/11/19 15:07:48;;;;;;;14.55;9.48;;;;;;;;;;4962313;28;20652;-43